createdAt,value
2019-02-03T00:01:32.517Z,27.90
2019-02-03T00:04:02.918Z,26.30
2019-02-03T00:06:33.824Z,27.60
2019-02-03T00:09:07.828Z,29.57
2019-02-03T00:11:38.591Z,28.30
2019-02-03T00:14:10.498Z,28.10
2019-02-03T00:16:40.989Z,28.93
2019-02-03T00:19:11.491Z,27.57
2019-02-03T00:21:41.838Z,30.37
2019-02-03T00:24:19.344Z,28.67
2019-02-03T00:26:49.705Z,30.53
2019-02-03T00:29:23.537Z,30.27
2019-02-03T00:31:53.862Z,29.63
2019-02-03T00:34:24.165Z,29.63
2019-02-03T00:36:54.477Z,29.63
2019-02-03T00:39:27.838Z,28.70
2019-02-03T00:41:58.282Z,29.80
2019-02-03T00:44:28.618Z,31.77
2019-02-03T00:46:59.265Z,31.00
2019-02-03T00:49:29.837Z,35.20
2019-02-03T00:52:00.014Z,31.87
2019-02-03T00:54:30.730Z,30.30
2019-02-03T00:57:02.450Z,34.93
2019-02-03T00:59:32.720Z,31.07
2019-02-03T01:02:03.162Z,31.07
2019-02-03T01:04:33.933Z,34.50
2019-02-03T01:07:05.466Z,32.73
2019-02-03T01:09:35.917Z,32.90
2019-02-03T01:12:07.019Z,33.10
2019-02-03T01:14:37.591Z,31.73
2019-02-03T01:17:07.743Z,32.37
2019-02-03T01:19:38.606Z,32.37
2019-02-03T01:22:09.129Z,31.30
2019-02-03T01:24:40.085Z,30.00
2019-02-03T01:27:10.807Z,29.10
2019-02-03T01:29:41.147Z,33.30
2019-02-03T01:32:12.320Z,33.07
2019-02-03T01:34:43.090Z,30.43
2019-02-03T01:37:17.510Z,32.07
2019-02-03T01:39:51.012Z,31.90
2019-02-03T01:42:21.919Z,31.97
2019-02-03T01:44:52.813Z,32.57
2019-02-03T01:47:23.241Z,31.40
2019-02-03T01:49:53.621Z,33.00
2019-02-03T01:52:24.042Z,31.33
2019-02-03T01:54:57.263Z,32.93
2019-02-03T01:57:28.278Z,32.20
2019-02-03T01:59:58.721Z,32.00
2019-02-03T02:02:29.187Z,32.20
2019-02-03T02:04:59.843Z,30.27
2019-02-03T02:07:37.899Z,33.83
2019-02-03T02:10:10.932Z,32.40
2019-02-03T02:12:42.634Z,33.97
2019-02-03T02:15:15.596Z,32.20
2019-02-03T02:17:48.490Z,31.47
2019-02-03T02:20:25.909Z,30.50
2019-02-03T02:22:57.648Z,32.90
2019-02-03T02:25:27.992Z,30.53
2019-02-03T02:27:58.317Z,32.40
2019-02-03T02:30:29.080Z,32.20
2019-02-03T02:32:59.751Z,32.97
2019-02-03T02:35:30.274Z,30.57
2019-02-03T02:38:06.452Z,31.87
2019-02-03T02:40:32.759Z,32.40
2019-02-03T02:43:04.147Z,30.43
2019-02-03T02:45:34.955Z,28.30
2019-02-03T02:48:05.293Z,29.40
2019-02-03T02:50:38.546Z,28.47
2019-02-03T02:53:08.966Z,29.80
2019-02-03T02:55:42.429Z,31.57
2019-02-03T02:58:12.942Z,29.70
2019-02-03T03:00:43.119Z,28.47
2019-02-03T03:03:13.734Z,30.13
2019-02-03T03:05:44.296Z,27.43
2019-02-03T03:08:19.119Z,26.90
2019-02-03T03:10:47.199Z,26.90
2019-02-03T03:13:17.965Z,29.40
2019-02-03T03:15:48.687Z,27.50
2019-02-03T03:18:19.785Z,28.20
2019-02-03T03:20:50.154Z,27.57
2019-02-03T03:23:20.503Z,27.73
2019-02-03T03:25:51.567Z,27.60
2019-02-03T03:28:24.733Z,27.17
2019-02-03T03:30:55.213Z,28.33
2019-02-03T03:33:25.744Z,26.70
2019-02-03T03:35:56.040Z,27.80
2019-02-03T03:38:32.290Z,27.03
2019-02-03T03:41:02.528Z,27.93
2019-02-03T03:43:34.835Z,26.93
2019-02-03T03:46:06.724Z,27.57
2019-02-03T03:48:37.220Z,25.83
2019-02-03T03:51:07.625Z,26.47
2019-02-03T03:53:41.590Z,25.30
2019-02-03T03:56:12.959Z,25.87
2019-02-03T03:58:44.505Z,26.27
2019-02-03T04:01:15.378Z,26.40
2019-02-03T04:03:46.006Z,25.70
2019-02-03T04:06:16.675Z,25.53
2019-02-03T04:08:47.332Z,25.40
2019-02-03T04:11:17.861Z,24.77
2019-02-03T04:13:48.558Z,26.10
2019-02-03T04:16:19.543Z,25.27
2019-02-03T04:18:50.856Z,25.50
2019-02-03T04:21:21.097Z,26.07
2019-02-03T04:23:51.655Z,26.00
2019-02-03T04:26:22.377Z,23.27
2019-02-03T04:28:52.950Z,23.30
2019-02-03T04:31:23.708Z,24.00
2019-02-03T04:33:54.334Z,23.43
2019-02-03T04:36:24.709Z,25.53
2019-02-03T04:38:58.155Z,24.37
2019-02-03T04:41:27.290Z,23.37
2019-02-03T04:43:58.321Z,23.70
2019-02-03T04:46:28.906Z,23.23
2019-02-03T04:48:59.873Z,22.23
2019-02-03T04:51:30.533Z,24.07
2019-02-03T04:54:00.721Z,22.87
2019-02-03T04:56:31.300Z,22.93
2019-02-03T04:59:01.977Z,23.80
2019-02-03T05:01:32.593Z,21.43
2019-02-03T05:04:03.014Z,22.37
2019-02-03T05:06:33.369Z,21.13
2019-02-03T05:09:11.143Z,24.90
2019-02-03T05:11:39.725Z,21.63
2019-02-03T05:14:12.218Z,21.60
2019-02-03T05:16:43.254Z,22.70
2019-02-03T05:19:13.832Z,20.20
2019-02-03T05:21:44.316Z,22.13
2019-02-03T05:24:14.853Z,22.60
2019-02-03T05:26:45.322Z,22.50
2019-02-03T05:29:15.578Z,22.83
2019-02-03T05:31:46.739Z,21.67
2019-02-03T05:34:17.085Z,24.03
2019-02-03T05:36:47.691Z,21.27
2019-02-03T05:39:25.255Z,23.57
2019-02-03T05:41:50.173Z,21.23
2019-02-03T05:44:20.430Z,22.07
2019-02-03T05:46:51.104Z,22.20
2019-02-03T05:49:21.546Z,23.27
2019-02-03T05:51:51.856Z,23.40
2019-02-03T05:54:22.991Z,21.73
2019-02-03T05:57:02.620Z,22.67
2019-02-03T05:59:33.282Z,21.50
2019-02-03T06:02:04.285Z,23.10
2019-02-03T06:04:34.716Z,23.60
2019-02-03T06:07:05.510Z,21.40
2019-02-03T06:09:37.102Z,21.50
2019-02-03T06:12:09.236Z,21.53
2019-02-03T06:14:39.995Z,20.00
2019-02-03T06:17:10.960Z,21.27
2019-02-03T06:19:41.361Z,20.60
2019-02-03T06:22:11.758Z,20.40
2019-02-03T06:24:41.876Z,21.23
2019-02-03T06:27:13.000Z,20.20
2019-02-03T06:29:43.302Z,20.60
2019-02-03T06:32:13.555Z,19.90
2019-02-03T06:34:44.159Z,21.10
2019-02-03T06:37:16.174Z,19.17
2019-02-03T06:39:48.652Z,19.03
2019-02-03T06:42:19.312Z,18.60
2019-02-03T06:44:49.612Z,19.63
2019-02-03T06:47:27.376Z,19.10
2019-02-03T06:49:58.209Z,19.03
2019-02-03T06:52:28.710Z,19.20
2019-02-03T06:54:59.348Z,17.77
2019-02-03T06:57:30.003Z,17.40
2019-02-03T07:00:00.590Z,17.10
2019-02-03T07:02:31.406Z,17.40
2019-02-03T07:05:01.776Z,17.13
2019-02-03T07:07:32.145Z,17.47
2019-02-03T07:10:03.712Z,18.77
2019-02-03T07:12:33.949Z,17.40
2019-02-03T07:15:05.084Z,17.80
2019-02-03T07:17:36.135Z,15.50
2019-02-03T07:20:07.331Z,16.70
2019-02-03T07:22:40.740Z,15.47
2019-02-03T07:25:11.770Z,15.60
2019-02-03T07:27:42.134Z,15.17
2019-02-03T07:30:14.922Z,15.37
2019-02-03T07:32:46.601Z,15.00
2019-02-03T07:35:17.039Z,15.07
2019-02-03T07:37:47.763Z,14.57
2019-02-03T07:40:18.532Z,13.80
2019-02-03T07:42:48.985Z,14.10
2019-02-03T07:45:19.476Z,13.97
2019-02-03T07:47:49.878Z,13.17
2019-02-03T07:50:20.350Z,13.23
2019-02-03T07:52:51.266Z,12.43
2019-02-03T07:55:21.713Z,11.97
2019-02-03T07:57:52.411Z,12.33
2019-02-03T08:00:23.369Z,11.97
2019-02-03T08:02:55.220Z,12.83
2019-02-03T08:05:26.101Z,11.10
2019-02-03T08:07:56.772Z,12.83
2019-02-03T08:10:29.542Z,11.00
2019-02-03T08:13:00.460Z,11.90
2019-02-03T08:15:33.853Z,11.10
2019-02-03T08:18:05.983Z,10.43
2019-02-03T08:20:43.745Z,9.87
2019-02-03T08:23:16.607Z,10.97
2019-02-03T08:25:48.189Z,10.20
2019-02-03T08:28:20.136Z,10.60
2019-02-03T08:30:50.825Z,10.53
2019-02-03T08:33:21.133Z,11.30
2019-02-03T08:35:55.148Z,12.37
2019-02-03T08:38:27.341Z,11.23
2019-02-03T08:40:59.968Z,11.13
2019-02-03T08:43:31.697Z,10.97
2019-02-03T08:46:03.640Z,13.87
2019-02-03T08:48:37.377Z,12.40
2019-02-03T08:51:09.909Z,12.97
2019-02-03T08:53:41.291Z,12.90
2019-02-03T08:56:15.594Z,12.40
2019-02-03T08:58:49.979Z,10.80
2019-02-03T09:01:24.220Z,11.10
2019-02-03T09:03:57.949Z,11.13
2019-02-03T09:06:29.498Z,9.63
2019-02-03T09:09:04.308Z,9.57
2019-02-03T09:11:40.136Z,9.30
2019-02-03T09:14:10.858Z,10.17
2019-02-03T09:16:41.770Z,9.90
2019-02-03T09:19:14.731Z,9.00
2019-02-03T09:21:46.956Z,9.53
2019-02-03T09:24:20.565Z,8.50
2019-02-03T09:26:55.052Z,8.30
2019-02-03T09:29:26.437Z,8.57
2019-02-03T09:31:57.691Z,8.47
2019-02-03T09:34:28.439Z,9.03
2019-02-03T09:37:01.512Z,7.90
2019-02-03T09:39:31.992Z,7.53
2019-02-03T09:42:02.913Z,7.33
2019-02-03T09:44:33.197Z,7.57
2019-02-03T09:47:03.753Z,7.67
2019-02-03T09:49:34.410Z,6.93
2019-02-03T09:52:06.940Z,7.20
2019-02-03T09:54:37.394Z,6.70
2019-02-03T09:57:19.139Z,7.17
2019-02-03T09:59:51.441Z,9.73
2019-02-03T10:02:21.670Z,9.57
2019-02-03T10:04:52.727Z,7.90
2019-02-03T10:07:23.234Z,7.27
2019-02-03T10:09:53.368Z,6.60
2019-02-03T10:12:26.883Z,6.90
2019-02-03T10:15:00.513Z,5.83
2019-02-03T10:17:34.275Z,5.80
2019-02-03T10:20:05.926Z,6.50
2019-02-03T10:22:37.786Z,5.57
2019-02-03T10:25:16.308Z,6.10
2019-02-03T10:27:47.036Z,5.40
2019-02-03T10:30:19.910Z,5.83
2019-02-03T10:32:50.809Z,4.77
2019-02-03T10:35:23.971Z,4.90
2019-02-03T10:37:54.922Z,4.60
2019-02-03T10:40:31.894Z,4.53
2019-02-03T10:43:03.373Z,3.83
2019-02-03T10:45:34.378Z,4.80
2019-02-03T10:48:07.766Z,4.53
2019-02-03T10:50:39.167Z,4.30
2019-02-03T10:53:11.562Z,5.60
2019-02-03T10:55:43.730Z,4.60
2019-02-03T10:58:14.021Z,4.43
2019-02-03T11:00:47.024Z,4.50
2019-02-03T11:03:17.457Z,4.40
2019-02-03T11:05:50.992Z,4.00
2019-02-03T11:08:21.441Z,4.50
2019-02-03T11:10:51.804Z,4.20
2019-02-03T11:13:22.693Z,4.43
2019-02-03T11:15:54.487Z,3.97
2019-02-03T11:18:24.847Z,4.60
2019-02-03T11:20:58.654Z,4.30
2019-02-03T11:23:33.367Z,4.33
2019-02-03T11:26:04.146Z,4.37
2019-02-03T11:28:35.286Z,4.30
2019-02-03T11:31:06.596Z,3.67
2019-02-03T11:33:40.320Z,4.40
2019-02-03T11:36:13.448Z,4.07
2019-02-03T11:38:44.270Z,4.27
2019-02-03T11:41:17.144Z,4.40
2019-02-03T11:43:47.208Z,3.80
2019-02-03T11:46:19.335Z,4.60
2019-02-03T11:48:53.574Z,4.70
2019-02-03T11:51:30.002Z,4.80
2019-02-03T11:54:02.193Z,4.00
2019-02-03T11:56:33.147Z,4.47
2019-02-03T11:59:07.925Z,4.50
2019-02-03T12:01:49.390Z,4.07
2019-02-03T12:04:24.439Z,4.07
2019-02-03T12:06:58.370Z,4.80
2019-02-03T12:09:29.647Z,4.13
2019-02-03T12:12:03.127Z,3.80
2019-02-03T12:14:36.718Z,3.70
2019-02-03T12:17:07.180Z,4.23
2019-02-03T12:19:38.755Z,3.90
2019-02-03T12:22:09.305Z,3.80
2019-02-03T12:24:41.498Z,3.70
2019-02-03T12:27:12.218Z,3.53
2019-02-03T12:29:42.517Z,3.40
2019-02-03T12:32:19.383Z,3.83
2019-02-03T12:34:49.652Z,3.67
2019-02-03T12:37:22.847Z,3.30
2019-02-03T12:39:56.255Z,3.80
2019-02-03T12:42:27.868Z,3.60
2019-02-03T12:44:58.944Z,3.83
2019-02-03T12:47:29.491Z,3.93
2019-02-03T12:50:00.427Z,3.67
2019-02-03T12:52:36.631Z,3.70
2019-02-03T12:55:08.170Z,3.07
2019-02-03T12:57:46.480Z,3.77
2019-02-03T13:00:24.292Z,3.10
2019-02-03T13:02:55.138Z,3.93
2019-02-03T13:05:26.770Z,3.83
2019-02-03T13:07:57.917Z,3.97
2019-02-03T13:10:34.149Z,5.17
2019-02-03T13:13:08.150Z,4.90
2019-02-03T13:15:42.839Z,3.30
2019-02-03T13:18:14.123Z,3.60
2019-02-03T13:20:44.921Z,3.67
2019-02-03T13:23:15.838Z,5.27
2019-02-03T13:25:46.537Z,3.50
2019-02-03T13:28:29.407Z,3.17
2019-02-03T13:30:59.988Z,3.43
2019-02-03T13:33:30.244Z,3.30
2019-02-03T13:36:02.006Z,3.17
2019-02-03T13:38:35.882Z,3.20
2019-02-03T13:41:06.924Z,2.87
2019-02-03T13:43:37.282Z,3.63
2019-02-03T13:46:14.237Z,3.77
2019-02-03T13:48:44.969Z,3.27
2019-02-03T13:51:17.850Z,3.30
2019-02-03T13:53:53.386Z,3.37
2019-02-03T13:56:31.919Z,3.53
2019-02-03T13:59:02.168Z,3.23
2019-02-03T14:01:35.350Z,2.93
2019-02-03T14:04:07.155Z,3.13
2019-02-03T14:06:37.933Z,2.93
2019-02-03T14:09:10.284Z,3.33
2019-02-03T14:11:43.320Z,3.77
2019-02-03T14:14:15.177Z,3.50
2019-02-03T14:16:47.075Z,4.60
2019-02-03T14:19:17.629Z,3.60
2019-02-03T14:21:48.373Z,3.57
2019-02-03T14:24:20.267Z,3.40
2019-02-03T14:26:51.721Z,3.20
2019-02-03T14:29:24.525Z,3.93
2019-02-03T14:31:56.196Z,3.10
2019-02-03T14:34:26.455Z,3.37
2019-02-03T14:36:57.358Z,2.90
2019-02-03T14:39:35.030Z,3.07
2019-02-03T14:42:11.846Z,2.93
2019-02-03T14:44:44.225Z,2.73
2019-02-03T14:47:21.906Z,3.13
2019-02-03T14:49:52.444Z,2.63
2019-02-03T14:52:22.692Z,2.73
2019-02-03T14:54:53.385Z,3.07
2019-02-03T14:57:23.937Z,2.60
2019-02-03T14:59:56.911Z,2.67
2019-02-03T15:02:31.011Z,3.03
2019-02-03T15:05:04.180Z,2.40
2019-02-03T15:07:42.389Z,2.50
2019-02-03T15:10:13.328Z,2.77
2019-02-03T15:12:46.517Z,3.00
2019-02-03T15:15:20.295Z,3.13
2019-02-03T15:17:53.006Z,3.10
2019-02-03T15:20:24.221Z,3.03
2019-02-03T15:22:56.532Z,2.80
2019-02-03T15:25:27.638Z,2.80
2019-02-03T15:27:58.318Z,3.20
2019-02-03T15:30:32.774Z,2.00
2019-02-03T15:33:03.552Z,2.60
2019-02-03T15:35:35.906Z,2.40
2019-02-03T15:38:09.181Z,2.60
2019-02-03T15:40:43.646Z,2.73
2019-02-03T15:43:25.438Z,2.90
2019-02-03T15:45:51.601Z,3.10
2019-02-03T15:48:23.017Z,3.00
2019-02-03T15:51:00.092Z,4.27
2019-02-03T15:53:35.186Z,2.93
2019-02-03T15:56:05.589Z,2.60
2019-02-03T15:58:36.239Z,2.90
2019-02-03T16:01:08.391Z,2.90
2019-02-03T16:03:39.376Z,2.80
2019-02-03T16:06:11.072Z,2.77
2019-02-03T16:08:41.652Z,2.63
2019-02-03T16:11:12.686Z,2.80
2019-02-03T16:13:47.368Z,2.97
2019-02-03T16:16:18.295Z,3.27
2019-02-03T16:18:48.779Z,2.67
2019-02-03T16:21:22.077Z,3.13
2019-02-03T16:23:52.585Z,2.77
2019-02-03T16:26:24.949Z,3.10
2019-02-03T16:28:54.893Z,3.40
2019-02-03T16:31:25.982Z,2.60
2019-02-03T16:34:01.518Z,3.07
2019-02-03T16:36:32.114Z,3.23
2019-02-03T16:39:06.840Z,3.00
2019-02-03T16:41:37.886Z,2.93
2019-02-03T16:44:08.347Z,3.30
2019-02-03T16:46:38.925Z,3.57
2019-02-03T16:49:11.565Z,3.00
2019-02-03T16:51:44.466Z,2.93
2019-02-03T16:54:17.994Z,3.27
2019-02-03T16:56:48.416Z,3.30
2019-02-03T16:59:18.814Z,3.30
2019-02-03T17:01:50.007Z,2.73
2019-02-03T17:04:23.710Z,3.37
2019-02-03T17:06:58.177Z,3.13
2019-02-03T17:09:29.052Z,3.40
2019-02-03T17:12:00.964Z,3.20
2019-02-03T17:14:33.655Z,3.20
2019-02-03T17:17:08.649Z,3.23
2019-02-03T17:19:40.979Z,3.20
2019-02-03T17:22:14.974Z,4.30
2019-02-03T17:24:47.955Z,3.80
2019-02-03T17:27:18.613Z,4.37
2019-02-03T17:29:48.970Z,4.53
2019-02-03T17:32:19.259Z,4.20
2019-02-03T17:34:50.327Z,4.57
2019-02-03T17:37:23.370Z,4.70
2019-02-03T17:39:54.077Z,4.87
2019-02-03T17:42:24.743Z,5.73
2019-02-03T17:44:56.044Z,5.53
2019-02-03T17:47:27.112Z,5.27
2019-02-03T17:49:58.127Z,5.90
2019-02-03T17:52:38.998Z,5.57
2019-02-03T17:55:06.687Z,5.30
2019-02-03T17:57:39.694Z,6.00
2019-02-03T18:00:36.652Z,6.70
2019-02-03T18:03:07.066Z,6.77
2019-02-03T18:05:42.670Z,7.20
2019-02-03T18:08:13.490Z,7.00
2019-02-03T18:10:43.803Z,7.30
2019-02-03T18:13:18.676Z,6.50
2019-02-03T18:15:49.085Z,6.30
2019-02-03T18:18:21.958Z,6.60
2019-02-03T18:20:52.717Z,6.47
2019-02-03T18:23:23.232Z,5.40
2019-02-03T18:25:53.901Z,5.90
2019-02-03T18:28:24.543Z,5.40
2019-02-03T18:30:55.424Z,5.80
2019-02-03T18:33:26.946Z,5.50
2019-02-03T18:35:59.216Z,5.67
2019-02-03T18:38:29.400Z,5.43
2019-02-03T18:41:00.277Z,5.47
2019-02-03T18:43:30.649Z,6.40
2019-02-03T18:46:04.652Z,6.23
2019-02-03T18:48:37.597Z,6.50
2019-02-03T18:51:10.698Z,6.23
2019-02-03T18:53:43.108Z,6.40
2019-02-03T18:56:14.202Z,6.07
2019-02-03T18:58:48.101Z,6.30
2019-02-03T19:01:20.383Z,7.00
2019-02-03T19:03:52.374Z,6.77
2019-02-03T19:06:23.773Z,6.00
2019-02-03T19:08:54.260Z,6.67
2019-02-03T19:11:28.104Z,5.93
2019-02-03T19:14:01.323Z,6.20
2019-02-03T19:16:33.891Z,5.77
2019-02-03T19:19:04.173Z,5.57
2019-02-03T19:21:34.804Z,5.77
2019-02-03T19:24:05.830Z,6.80
2019-02-03T19:26:39.214Z,5.97
2019-02-03T19:29:09.455Z,5.13
2019-02-03T19:31:46.716Z,5.53
2019-02-03T19:34:17.065Z,6.53
2019-02-03T19:36:50.745Z,5.80
2019-02-03T19:39:21.556Z,6.50
2019-02-03T19:41:51.951Z,6.60
2019-02-03T19:44:22.273Z,6.93
2019-02-03T19:47:03.046Z,7.00
2019-02-03T19:49:33.781Z,6.27
2019-02-03T19:52:04.176Z,7.77
2019-02-03T19:54:38.426Z,7.90
2019-02-03T19:57:21.087Z,6.80
2019-02-03T19:59:54.598Z,7.20
2019-02-03T20:02:24.857Z,6.93
2019-02-03T20:05:00.570Z,6.53
2019-02-03T20:07:30.969Z,7.30
2019-02-03T20:10:01.749Z,7.30
2019-02-03T20:12:33.966Z,7.83
2019-02-03T20:15:10.168Z,6.13
2019-02-03T20:17:37.532Z,6.50
2019-02-03T20:20:10.773Z,6.60
2019-02-03T20:22:41.408Z,6.63
2019-02-03T20:25:14.052Z,7.00
2019-02-03T20:27:45.155Z,6.93
2019-02-03T20:30:36.890Z,5.97
2019-02-03T20:32:55.135Z,6.70
2019-02-03T20:35:26.935Z,6.43
2019-02-03T20:37:57.654Z,6.07
2019-02-03T20:40:33.585Z,5.93
2019-02-03T20:43:05.907Z,5.47
2019-02-03T20:45:48.942Z,5.93
2019-02-03T20:48:16.444Z,6.17
2019-02-03T20:50:47.033Z,6.30
2019-02-03T20:53:20.590Z,6.00
2019-02-03T20:55:51.512Z,6.00
2019-02-03T20:58:22.196Z,5.70
2019-02-03T21:00:53.069Z,6.20
2019-02-03T21:03:23.488Z,5.73
2019-02-03T21:05:54.556Z,5.77
2019-02-03T21:08:25.091Z,6.27
2019-02-03T21:10:58.715Z,5.60
2019-02-03T21:13:29.112Z,7.03
2019-02-03T21:15:59.453Z,7.63
2019-02-03T21:18:30.099Z,7.03
2019-02-03T21:21:00.566Z,6.93
2019-02-03T21:23:38.996Z,6.80
2019-02-03T21:26:16.324Z,6.73
2019-02-03T21:28:42.782Z,7.20
2019-02-03T21:31:14.847Z,6.30
2019-02-03T21:33:45.493Z,6.20
2019-02-03T21:36:15.684Z,6.30
2019-02-03T21:38:46.501Z,5.63
2019-02-03T21:41:16.737Z,6.63
2019-02-03T21:43:47.677Z,6.00
2019-02-03T21:46:18.500Z,5.97
2019-02-03T21:48:48.657Z,5.43
2019-02-03T21:51:19.176Z,6.10
2019-02-03T21:53:50.144Z,5.80
2019-02-03T21:56:21.690Z,5.73
2019-02-03T21:58:52.137Z,6.23
2019-02-03T22:01:22.467Z,5.40
2019-02-03T22:03:53.021Z,5.63
2019-02-03T22:06:24.979Z,5.77
2019-02-03T22:08:55.593Z,5.13
2019-02-03T22:11:27.240Z,5.20
2019-02-03T22:13:58.124Z,5.13
2019-02-03T22:16:34.093Z,6.00
2019-02-03T22:19:05.980Z,4.93
2019-02-03T22:21:36.842Z,5.53
2019-02-03T22:24:13.642Z,5.70
2019-02-03T22:26:48.317Z,4.80
2019-02-03T22:29:19.125Z,5.07
2019-02-03T22:31:52.584Z,5.77
2019-02-03T22:34:23.437Z,4.70
2019-02-03T22:36:53.706Z,4.70
2019-02-03T22:39:24.298Z,5.60
2019-02-03T22:41:55.122Z,5.50
2019-02-03T22:44:25.569Z,4.90
2019-02-03T22:46:56.320Z,5.60
2019-02-03T22:49:26.763Z,5.13
2019-02-03T22:52:00.174Z,5.43
2019-02-03T22:54:32.019Z,5.33
2019-02-03T22:57:02.596Z,5.50
2019-02-03T22:59:33.265Z,5.60
2019-02-03T23:02:03.820Z,5.23
2019-02-03T23:04:36.671Z,5.67
2019-02-03T23:07:07.408Z,5.20
2019-02-03T23:09:37.745Z,6.37
2019-02-03T23:12:09.487Z,7.67
2019-02-03T23:14:42.884Z,8.10
2019-02-03T23:17:13.196Z,6.97
2019-02-03T23:19:44.089Z,7.47
2019-02-03T23:22:14.976Z,8.30
2019-02-03T23:24:45.369Z,8.27
2019-02-03T23:27:16.367Z,8.47
2019-02-03T23:29:46.825Z,7.60
2019-02-03T23:32:19.075Z,6.90
2019-02-03T23:34:49.309Z,6.73
2019-02-03T23:37:21.954Z,6.57
2019-02-03T23:39:52.575Z,6.20
2019-02-03T23:42:23.468Z,6.33
2019-02-03T23:44:53.813Z,6.10
2019-02-03T23:47:24.026Z,6.17
2019-02-03T23:49:55.841Z,6.30
2019-02-03T23:52:29.948Z,5.27
2019-02-03T23:55:00.406Z,5.90
2019-02-03T23:57:31.067Z,5.40
